createdAt,value
2022-10-30T00:01:49.219Z,6.50
2022-10-30T00:04:16.910Z,5.30
2022-10-30T00:06:44.947Z,4.30
2022-10-30T00:09:14.225Z,5.37
2022-10-30T00:11:41.812Z,4.87
2022-10-30T00:14:09.557Z,4.77
2022-10-30T00:16:37.079Z,5.33
2022-10-30T00:19:04.720Z,5.40
2022-10-30T00:21:32.234Z,6.30
2022-10-30T00:23:59.729Z,5.47
2022-10-30T00:26:28.926Z,5.57
2022-10-30T00:28:57.300Z,5.50
2022-10-30T00:31:27.431Z,5.50
2022-10-30T00:33:56.202Z,5.67
2022-10-30T00:36:25.520Z,5.50
2022-10-30T00:38:53.116Z,4.90
2022-10-30T00:41:22.950Z,6.07
2022-10-30T00:43:52.648Z,5.67
2022-10-30T00:46:22.952Z,5.70
2022-10-30T00:48:54.171Z,5.20
2022-10-30T00:51:24.385Z,5.17
2022-10-30T00:53:52.516Z,5.30
2022-10-30T00:56:21.853Z,4.63
2022-10-30T00:58:53.843Z,4.00
2022-10-30T01:01:24.624Z,5.50
2022-10-30T01:03:56.213Z,4.43
2022-10-30T01:06:23.961Z,5.40
2022-10-30T01:08:56.957Z,5.50
2022-10-30T01:11:30.192Z,6.77
2022-10-30T01:14:03.285Z,5.23
2022-10-30T01:16:46.990Z,5.67
2022-10-30T01:19:21.218Z,5.43
2022-10-30T01:22:03.222Z,5.23
2022-10-30T01:24:40.161Z,5.60
2022-10-30T01:27:18.798Z,5.70
2022-10-30T01:29:53.814Z,5.13
2022-10-30T01:32:32.573Z,5.67
2022-10-30T01:35:03.986Z,5.00
2022-10-30T01:37:34.521Z,5.87
2022-10-30T01:40:06.787Z,5.20
2022-10-30T01:42:46.151Z,4.80
2022-10-30T01:45:21.449Z,4.80
2022-10-30T01:47:58.969Z,7.73
2022-10-30T01:50:34.488Z,5.40
2022-10-30T01:53:05.878Z,5.40
2022-10-30T01:55:38.113Z,5.23
2022-10-30T01:58:10.011Z,5.10
2022-10-30T02:00:42.312Z,5.83
2022-10-30T02:03:10.067Z,5.07
2022-10-30T02:05:40.906Z,5.63
2022-10-30T02:08:08.511Z,5.70
2022-10-30T02:10:36.818Z,6.03
2022-10-30T02:13:04.571Z,5.20
2022-10-30T02:15:34.418Z,5.47
2022-10-30T02:18:03.412Z,5.23
2022-10-30T02:20:32.422Z,4.73
2022-10-30T02:23:00.461Z,6.13
2022-10-30T02:25:28.326Z,6.07
2022-10-30T02:27:55.833Z,5.43
2022-10-30T02:30:23.342Z,6.20
2022-10-30T02:32:50.905Z,5.50
2022-10-30T02:35:18.490Z,6.10
2022-10-30T02:37:48.558Z,6.13
2022-10-30T02:40:16.198Z,5.63
2022-10-30T02:42:43.705Z,5.47
2022-10-30T02:45:12.395Z,6.07
2022-10-30T02:47:39.908Z,6.03
2022-10-30T02:50:08.984Z,5.53
2022-10-30T02:52:36.491Z,4.53
2022-10-30T02:55:06.201Z,4.63
2022-10-30T02:57:33.757Z,5.60
2022-10-30T03:00:01.434Z,5.63
2022-10-30T03:02:28.930Z,5.67
2022-10-30T03:04:56.443Z,5.40
2022-10-30T03:07:23.989Z,5.67
2022-10-30T03:09:52.049Z,5.50
2022-10-30T03:12:20.916Z,5.27
2022-10-30T03:14:48.428Z,5.00
2022-10-30T03:17:15.969Z,4.80
2022-10-30T03:19:43.499Z,4.50
2022-10-30T03:22:11.089Z,5.10
2022-10-30T03:24:39.031Z,4.90
2022-10-30T03:27:06.623Z,5.27
2022-10-30T03:29:35.448Z,5.10
2022-10-30T03:32:02.987Z,6.27
2022-10-30T03:34:30.529Z,5.80
2022-10-30T03:36:58.019Z,4.53
2022-10-30T03:39:25.566Z,4.73
2022-10-30T03:41:53.060Z,5.47
2022-10-30T03:44:20.589Z,5.00
2022-10-30T03:46:49.433Z,8.23
2022-10-30T03:49:16.941Z,6.63
2022-10-30T03:51:44.486Z,5.30
2022-10-30T03:54:12.000Z,5.37
2022-10-30T03:56:39.574Z,4.60
2022-10-30T03:59:07.114Z,5.33
2022-10-30T04:01:34.758Z,5.80
2022-10-30T04:04:03.779Z,5.47
2022-10-30T04:06:31.301Z,4.90
2022-10-30T04:08:58.827Z,5.57
2022-10-30T04:11:26.429Z,6.20
2022-10-30T04:13:53.986Z,5.77
2022-10-30T04:16:24.214Z,4.90
2022-10-30T04:18:51.761Z,5.37
2022-10-30T04:21:20.599Z,4.77
2022-10-30T04:23:48.147Z,4.33
2022-10-30T04:26:15.848Z,4.93
2022-10-30T04:28:43.388Z,4.53
2022-10-30T04:31:10.932Z,5.07
2022-10-30T04:33:38.454Z,5.10
2022-10-30T04:36:06.864Z,5.37
2022-10-30T04:38:35.749Z,4.70
2022-10-30T04:41:03.251Z,5.00
2022-10-30T04:43:30.791Z,5.60
2022-10-30T04:45:58.292Z,4.33
2022-10-30T04:48:25.884Z,4.60
2022-10-30T04:50:53.704Z,5.07
2022-10-30T04:53:21.969Z,5.13
2022-10-30T04:55:54.481Z,4.93
2022-10-30T04:58:21.992Z,5.50
2022-10-30T05:00:49.522Z,5.10
2022-10-30T05:03:20.018Z,5.30
2022-10-30T05:05:49.429Z,5.03
2022-10-30T05:08:17.761Z,4.50
2022-10-30T05:10:45.282Z,4.27
2022-10-30T05:13:14.148Z,4.77
2022-10-30T05:15:41.666Z,4.77
2022-10-30T05:18:09.160Z,5.20
2022-10-30T05:20:36.702Z,6.30
2022-10-30T05:23:04.589Z,5.13
2022-10-30T05:25:32.325Z,5.10
2022-10-30T05:28:00.570Z,4.63
2022-10-30T05:30:31.233Z,4.60
2022-10-30T05:32:59.871Z,4.70
2022-10-30T05:35:28.361Z,4.97
2022-10-30T05:37:56.056Z,5.50
2022-10-30T05:40:23.613Z,5.27
2022-10-30T05:42:51.138Z,5.07
2022-10-30T05:45:18.960Z,5.50
2022-10-30T05:47:55.612Z,4.30
2022-10-30T05:50:23.299Z,4.50
2022-10-30T05:52:50.926Z,4.47
2022-10-30T05:55:18.449Z,4.20
2022-10-30T05:57:45.961Z,4.80
2022-10-30T06:00:14.884Z,4.97
2022-10-30T06:02:42.422Z,5.53
2022-10-30T06:05:11.609Z,5.40
2022-10-30T06:07:39.188Z,5.73
2022-10-30T06:10:07.358Z,4.77
2022-10-30T06:12:35.006Z,4.37
2022-10-30T06:15:03.694Z,4.87
2022-10-30T06:17:31.507Z,4.43
2022-10-30T06:19:59.055Z,5.63
2022-10-30T06:22:28.039Z,5.63
2022-10-30T06:24:55.560Z,4.50
2022-10-30T06:27:23.088Z,6.37
2022-10-30T06:29:50.853Z,5.63
2022-10-30T06:32:18.369Z,4.33
2022-10-30T06:34:45.916Z,5.17
2022-10-30T06:37:13.666Z,4.60
2022-10-30T06:39:42.595Z,5.07
2022-10-30T06:42:10.290Z,5.53
2022-10-30T06:44:37.808Z,4.63
2022-10-30T06:47:05.433Z,4.90
2022-10-30T06:49:32.950Z,4.97
2022-10-30T06:52:00.481Z,7.00
2022-10-30T06:54:28.023Z,4.93
2022-10-30T06:56:56.900Z,5.50
2022-10-30T06:59:25.206Z,5.77
2022-10-30T07:01:55.718Z,5.27
2022-10-30T07:04:26.695Z,5.50
2022-10-30T07:06:54.226Z,5.00
2022-10-30T07:09:21.803Z,5.30
2022-10-30T07:11:55.916Z,5.20
2022-10-30T07:14:25.836Z,5.10
2022-10-30T07:16:55.345Z,5.10
2022-10-30T07:19:23.008Z,4.57
2022-10-30T07:21:50.673Z,5.40
2022-10-30T07:24:18.273Z,5.03
2022-10-30T07:26:45.917Z,4.80
2022-10-30T07:29:13.498Z,3.73
2022-10-30T07:31:57.496Z,5.47
2022-10-30T07:34:29.601Z,4.27
2022-10-30T07:36:57.191Z,4.87
2022-10-30T07:39:24.816Z,4.80
2022-10-30T07:41:52.407Z,4.10
2022-10-30T07:44:19.967Z,4.53
2022-10-30T07:46:49.493Z,4.10
2022-10-30T07:49:17.080Z,4.97
2022-10-30T07:51:44.667Z,4.10
2022-10-30T07:54:12.192Z,6.33
2022-10-30T07:56:39.778Z,5.00
2022-10-30T07:59:07.305Z,5.70
2022-10-30T08:01:34.992Z,4.73
2022-10-30T08:04:05.019Z,5.63
2022-10-30T08:06:32.570Z,5.77
2022-10-30T08:09:00.087Z,5.83
2022-10-30T08:11:27.619Z,5.20
2022-10-30T08:13:55.201Z,5.73
2022-10-30T08:16:22.751Z,4.73
2022-10-30T08:18:50.334Z,4.93
2022-10-30T08:21:19.210Z,4.67
2022-10-30T08:23:46.761Z,4.80
2022-10-30T08:26:15.082Z,5.47
2022-10-30T08:28:42.594Z,4.60
2022-10-30T08:31:10.189Z,5.27
2022-10-30T08:33:37.767Z,5.50
2022-10-30T08:36:31.510Z,5.90
2022-10-30T08:38:59.911Z,6.00
2022-10-30T08:41:28.195Z,6.30
2022-10-30T08:43:57.138Z,7.70
2022-10-30T08:46:26.809Z,6.47
2022-10-30T08:48:55.743Z,4.80
2022-10-30T08:51:24.179Z,5.40
2022-10-30T08:53:55.722Z,5.73
2022-10-30T08:56:24.987Z,4.47
2022-10-30T08:58:54.745Z,5.13
2022-10-30T09:01:23.127Z,4.47
2022-10-30T09:03:51.720Z,4.57
2022-10-30T09:06:20.151Z,4.40
2022-10-30T09:08:47.794Z,4.87
2022-10-30T09:11:17.449Z,5.03
2022-10-30T09:13:45.040Z,5.83
2022-10-30T09:16:15.343Z,5.47
2022-10-30T09:18:43.311Z,5.70
2022-10-30T09:21:11.498Z,5.60
2022-10-30T09:23:39.138Z,4.73
2022-10-30T09:26:07.065Z,6.23
2022-10-30T09:28:36.021Z,5.80
2022-10-30T09:31:03.963Z,4.57
2022-10-30T09:33:31.553Z,5.67
2022-10-30T09:35:59.120Z,5.53
2022-10-30T09:38:27.215Z,6.27
2022-10-30T09:41:13.648Z,5.10
2022-10-30T09:43:50.700Z,6.27
2022-10-30T09:46:27.520Z,5.07
2022-10-30T09:49:13.534Z,5.83
2022-10-30T09:52:00.233Z,5.97
2022-10-30T09:54:37.134Z,6.50
2022-10-30T09:57:08.477Z,5.73
2022-10-30T09:59:46.368Z,5.90
2022-10-30T10:02:25.242Z,6.37
2022-10-30T10:04:57.533Z,6.60
2022-10-30T10:07:29.541Z,6.27
2022-10-30T10:10:01.387Z,6.93
2022-10-30T10:12:33.377Z,7.17
2022-10-30T10:15:05.855Z,7.17
2022-10-30T10:17:36.019Z,7.50
2022-10-30T10:20:05.660Z,8.60
2022-10-30T10:22:41.569Z,8.80
2022-10-30T10:25:14.515Z,7.80
2022-10-30T10:27:54.428Z,8.57
2022-10-30T10:30:24.504Z,7.67
2022-10-30T10:33:12.236Z,9.07
2022-10-30T10:35:57.870Z,8.50
2022-10-30T10:38:35.012Z,8.10
2022-10-30T10:41:10.892Z,7.80
2022-10-30T10:43:45.364Z,7.50
2022-10-30T10:46:32.037Z,8.27
2022-10-30T10:49:11.891Z,7.53
2022-10-30T10:51:41.367Z,9.30
2022-10-30T10:54:12.435Z,8.70
2022-10-30T10:56:42.117Z,7.90
2022-10-30T10:59:15.739Z,10.17
2022-10-30T11:01:52.340Z,9.70
2022-10-30T11:04:28.178Z,8.33
2022-10-30T11:06:56.733Z,6.77
2022-10-30T11:09:25.621Z,6.60
2022-10-30T11:11:55.355Z,6.63
2022-10-30T11:14:24.596Z,6.30
2022-10-30T11:17:06.755Z,5.83
2022-10-30T11:19:34.416Z,5.30
2022-10-30T11:22:02.196Z,5.90
2022-10-30T11:24:31.851Z,5.93
2022-10-30T11:27:00.453Z,6.37
2022-10-30T11:29:29.508Z,7.40
2022-10-30T11:32:02.813Z,10.60
2022-10-30T11:34:35.202Z,7.80
2022-10-30T11:37:03.363Z,6.93
2022-10-30T11:39:32.462Z,8.23
2022-10-30T11:42:03.389Z,7.03
2022-10-30T11:44:33.700Z,6.43
2022-10-30T11:47:01.445Z,7.57
2022-10-30T11:49:36.971Z,6.43
2022-10-30T11:52:04.966Z,6.40
2022-10-30T11:54:37.123Z,6.67
2022-10-30T11:57:05.229Z,6.13
2022-10-30T11:59:32.897Z,4.97
2022-10-30T12:02:02.633Z,6.03
2022-10-30T12:04:32.827Z,6.27
2022-10-30T12:07:20.014Z,6.80
2022-10-30T12:09:48.808Z,7.20
2022-10-30T12:12:23.402Z,7.80
2022-10-30T12:14:51.402Z,7.17
2022-10-30T12:17:20.341Z,6.57
2022-10-30T12:19:49.964Z,5.60
2022-10-30T12:22:31.653Z,5.00
2022-10-30T12:25:01.267Z,4.97
2022-10-30T12:27:31.287Z,5.20
2022-10-30T12:30:09.905Z,5.40
2022-10-30T12:32:45.182Z,5.47
2022-10-30T12:35:23.137Z,6.60
2022-10-30T12:37:54.418Z,6.70
2022-10-30T12:40:25.996Z,6.40
2022-10-30T12:42:58.765Z,5.93
2022-10-30T12:45:31.698Z,5.07
2022-10-30T12:48:02.446Z,5.50
2022-10-30T12:50:33.975Z,5.50
2022-10-30T12:53:07.423Z,5.83
2022-10-30T12:55:38.273Z,5.90
2022-10-30T12:58:11.844Z,5.43
2022-10-30T13:00:46.343Z,6.07
2022-10-30T13:03:23.376Z,5.80
2022-10-30T13:05:52.746Z,5.67
2022-10-30T13:08:27.268Z,6.00
2022-10-30T13:10:55.877Z,5.80
2022-10-30T13:13:26.357Z,6.93
2022-10-30T13:15:55.547Z,5.47
2022-10-30T13:18:24.472Z,8.00
2022-10-30T13:21:05.386Z,10.50
2022-10-30T13:23:43.267Z,7.40
2022-10-30T13:26:16.759Z,8.30
2022-10-30T13:28:48.935Z,7.97
2022-10-30T13:31:23.380Z,7.10
2022-10-30T13:33:58.891Z,7.80
2022-10-30T13:36:33.038Z,9.60
2022-10-30T13:39:05.261Z,8.73
2022-10-30T13:41:41.094Z,9.27
2022-10-30T13:44:18.830Z,8.77
2022-10-30T13:47:03.059Z,9.80
2022-10-30T13:49:43.952Z,9.63
2022-10-30T13:52:15.449Z,7.10
2022-10-30T13:54:47.130Z,7.10
2022-10-30T13:57:19.072Z,10.17
2022-10-30T13:59:57.082Z,22.83
2022-10-30T14:02:35.055Z,15.87
2022-10-30T14:05:07.949Z,13.67
2022-10-30T14:07:42.024Z,13.47
2022-10-30T14:10:12.843Z,12.03
2022-10-30T14:12:51.082Z,11.30
2022-10-30T14:15:41.859Z,11.10
2022-10-30T14:18:33.403Z,16.43
2022-10-30T14:21:30.703Z,31.67
2022-10-30T14:24:03.794Z,31.57
2022-10-30T14:26:32.803Z,43.13
2022-10-30T14:29:30.629Z,44.33
2022-10-30T14:31:59.574Z,47.50
2022-10-30T14:34:42.286Z,35.10
2022-10-30T14:37:10.305Z,25.20
2022-10-30T14:39:41.447Z,13.10
2022-10-30T14:42:15.062Z,12.70
2022-10-30T14:45:02.404Z,12.33
2022-10-30T14:47:47.774Z,13.87
2022-10-30T14:50:19.416Z,19.83
2022-10-30T14:52:56.966Z,16.47
2022-10-30T14:55:29.416Z,12.30
2022-10-30T14:58:17.350Z,9.70
2022-10-30T15:00:45.653Z,7.63
2022-10-30T15:03:20.035Z,6.90
2022-10-30T15:05:51.704Z,7.37
2022-10-30T15:08:42.848Z,7.50
2022-10-30T15:11:32.242Z,6.83
2022-10-30T15:14:01.633Z,5.80
2022-10-30T15:16:31.217Z,6.80
2022-10-30T15:19:03.050Z,7.47
2022-10-30T15:21:34.198Z,6.70
2022-10-30T15:24:02.845Z,6.00
2022-10-30T15:26:34.640Z,7.63
2022-10-30T15:29:02.715Z,6.30
2022-10-30T15:31:30.862Z,6.67
2022-10-30T15:33:59.902Z,7.77
2022-10-30T15:36:30.545Z,6.60
2022-10-30T15:39:06.352Z,6.60
2022-10-30T15:41:36.037Z,6.00
2022-10-30T15:44:03.684Z,8.93
2022-10-30T15:46:31.923Z,6.27
2022-10-30T15:49:00.949Z,5.70
2022-10-30T15:51:28.933Z,5.37
2022-10-30T15:53:57.682Z,6.53
2022-10-30T15:56:27.932Z,5.93
2022-10-30T15:58:59.300Z,5.97
2022-10-30T16:01:28.382Z,5.87
2022-10-30T16:03:56.042Z,6.40
2022-10-30T16:06:27.585Z,6.10
2022-10-30T16:08:55.189Z,6.30
2022-10-30T16:11:23.651Z,6.40
2022-10-30T16:13:51.956Z,6.70
2022-10-30T16:16:23.256Z,6.30
2022-10-30T16:18:50.950Z,6.00
2022-10-30T16:21:19.695Z,6.50
2022-10-30T16:23:53.248Z,6.77
2022-10-30T16:26:29.822Z,7.30
2022-10-30T16:28:57.932Z,8.30
2022-10-30T16:31:25.949Z,8.20
2022-10-30T16:33:53.609Z,9.63
2022-10-30T16:36:21.310Z,6.73
2022-10-30T16:38:51.156Z,5.60
2022-10-30T16:41:26.756Z,6.77
2022-10-30T16:44:21.863Z,5.77
2022-10-30T16:46:52.464Z,5.93
2022-10-30T16:49:21.877Z,6.30
2022-10-30T16:51:56.241Z,6.47
2022-10-30T16:54:28.488Z,7.00
2022-10-30T16:56:58.009Z,6.60
2022-10-30T16:59:33.108Z,6.67
2022-10-30T17:02:05.716Z,6.17
2022-10-30T17:04:35.233Z,6.60
2022-10-30T17:07:05.566Z,7.17
2022-10-30T17:09:38.695Z,7.33
2022-10-30T17:12:13.806Z,9.33
2022-10-30T17:14:52.993Z,7.23
2022-10-30T17:17:28.256Z,6.87
2022-10-30T17:20:04.924Z,6.00
2022-10-30T17:22:32.638Z,5.80
2022-10-30T17:25:01.731Z,6.60
2022-10-30T17:27:34.148Z,6.90
2022-10-30T17:30:01.701Z,5.63
2022-10-30T17:32:32.047Z,5.20
2022-10-30T17:35:02.593Z,5.27
2022-10-30T17:37:30.192Z,4.60
2022-10-30T17:39:57.736Z,5.63
2022-10-30T17:42:26.713Z,6.83
2022-10-30T17:44:54.704Z,6.30
2022-10-30T17:47:23.663Z,5.20
2022-10-30T17:49:51.170Z,5.03
2022-10-30T17:52:21.306Z,5.97
2022-10-30T17:54:48.899Z,5.33
2022-10-30T17:57:17.091Z,5.17
2022-10-30T17:59:46.046Z,4.40
2022-10-30T18:02:15.144Z,4.80
2022-10-30T18:04:43.322Z,4.80
2022-10-30T18:07:10.969Z,3.83
2022-10-30T18:09:38.950Z,3.77
2022-10-30T18:12:08.388Z,4.40
2022-10-30T18:14:35.912Z,5.20
2022-10-30T18:17:05.769Z,4.07
2022-10-30T18:19:33.569Z,4.07
2022-10-30T18:22:01.130Z,4.60
2022-10-30T18:24:28.648Z,3.93
2022-10-30T18:26:56.795Z,4.50
2022-10-30T18:29:24.360Z,3.70
2022-10-30T18:31:51.904Z,3.73
2022-10-30T18:34:21.468Z,4.03
2022-10-30T18:36:49.455Z,5.40
2022-10-30T18:39:16.988Z,4.00
2022-10-30T18:41:46.133Z,3.90
2022-10-30T18:44:15.562Z,4.23
2022-10-30T18:46:43.506Z,3.90
2022-10-30T18:49:11.252Z,3.90
2022-10-30T18:51:40.201Z,4.00
2022-10-30T18:54:13.187Z,4.03
2022-10-30T18:56:40.733Z,4.37
2022-10-30T18:59:08.288Z,3.70
2022-10-30T19:01:36.508Z,3.80
2022-10-30T19:04:05.020Z,3.47
2022-10-30T19:06:34.016Z,4.20
2022-10-30T19:09:03.147Z,3.73
2022-10-30T19:11:31.797Z,3.40
2022-10-30T19:14:00.216Z,4.37
2022-10-30T19:16:28.063Z,8.10
2022-10-30T19:18:55.634Z,9.80
2022-10-30T19:21:25.272Z,11.70
2022-10-30T19:23:52.838Z,11.40
2022-10-30T19:26:21.759Z,7.70
2022-10-30T19:28:49.642Z,6.07
2022-10-30T19:31:21.351Z,6.23
2022-10-30T19:33:53.031Z,4.07
2022-10-30T19:36:28.798Z,5.80
2022-10-30T19:38:56.870Z,4.40
2022-10-30T19:41:25.956Z,4.00
2022-10-30T19:43:53.922Z,4.67
2022-10-30T19:46:22.188Z,3.90
2022-10-30T19:48:58.557Z,5.30
2022-10-30T19:51:26.741Z,8.17
2022-10-30T19:53:54.441Z,6.37
2022-10-30T19:56:22.373Z,19.60
2022-10-30T19:58:53.255Z,10.40
2022-10-30T20:01:20.842Z,4.70
2022-10-30T20:03:48.543Z,7.97
2022-10-30T20:06:16.565Z,3.90
2022-10-30T20:08:44.092Z,5.00
2022-10-30T20:11:11.627Z,5.53
2022-10-30T20:13:39.389Z,8.70
2022-10-30T20:16:08.739Z,4.10
2022-10-30T20:18:37.313Z,3.53
2022-10-30T20:21:08.259Z,5.57
2022-10-30T20:23:38.964Z,4.90
2022-10-30T20:26:07.965Z,3.27
2022-10-30T20:28:36.871Z,4.70
2022-10-30T20:31:04.779Z,3.40
2022-10-30T20:33:34.124Z,3.77
2022-10-30T20:36:06.803Z,4.47
2022-10-30T20:38:35.397Z,4.23
2022-10-30T20:41:04.164Z,3.33
2022-10-30T20:43:34.630Z,4.23
2022-10-30T20:46:10.791Z,3.73
2022-10-30T20:48:44.726Z,4.60
2022-10-30T20:51:12.652Z,3.93
2022-10-30T20:53:40.231Z,3.23
2022-10-30T20:56:08.211Z,3.97
2022-10-30T20:58:35.801Z,4.10
2022-10-30T21:01:03.389Z,4.00
2022-10-30T21:03:31.022Z,4.90
2022-10-30T21:06:01.260Z,3.80
2022-10-30T21:08:34.248Z,3.53
2022-10-30T21:11:02.596Z,3.20
2022-10-30T21:13:30.230Z,3.10
2022-10-30T21:16:04.057Z,3.63
2022-10-30T21:18:36.034Z,4.13
2022-10-30T21:21:06.903Z,2.47
2022-10-30T21:23:34.449Z,2.80
2022-10-30T21:26:04.675Z,3.53
2022-10-30T21:28:32.208Z,2.80
2022-10-30T21:31:01.989Z,3.57
2022-10-30T21:33:30.942Z,3.20
2022-10-30T21:35:58.519Z,3.30
2022-10-30T21:38:28.441Z,3.63
2022-10-30T21:40:56.642Z,3.67
2022-10-30T21:43:29.741Z,3.77
2022-10-30T21:45:57.261Z,2.90
2022-10-30T21:48:26.313Z,3.47
2022-10-30T21:50:55.420Z,2.90
2022-10-30T21:53:22.978Z,3.10
2022-10-30T21:55:51.920Z,3.37
2022-10-30T21:58:19.446Z,3.93
2022-10-30T22:00:47.075Z,4.10
2022-10-30T22:03:15.292Z,4.00
2022-10-30T22:05:42.842Z,3.97
2022-10-30T22:08:10.383Z,4.50
2022-10-30T22:10:37.905Z,3.70
2022-10-30T22:13:06.805Z,4.47
2022-10-30T22:15:34.374Z,3.80
2022-10-30T22:18:02.252Z,3.73
2022-10-30T22:20:30.084Z,5.10
2022-10-30T22:22:57.654Z,5.00
2022-10-30T22:25:25.281Z,4.50
2022-10-30T22:27:54.027Z,3.50
2022-10-30T22:30:22.883Z,3.40
2022-10-30T22:32:52.539Z,3.07
2022-10-30T22:35:22.512Z,3.07
2022-10-30T22:37:50.080Z,3.83
2022-10-30T22:40:17.600Z,4.00
2022-10-30T22:42:45.099Z,4.10
2022-10-30T22:45:12.633Z,3.00
2022-10-30T22:47:41.484Z,3.90
2022-10-30T22:50:09.583Z,3.60
2022-10-30T22:52:37.122Z,3.13
2022-10-30T22:55:05.003Z,3.73
2022-10-30T22:57:33.225Z,3.00
2022-10-30T23:00:01.025Z,3.67
2022-10-30T23:02:28.701Z,4.30
2022-10-30T23:04:57.633Z,3.00
2022-10-30T23:07:25.198Z,3.77
2022-10-30T23:09:52.721Z,3.93
2022-10-30T23:12:20.240Z,3.50
2022-10-30T23:14:47.738Z,3.60
2022-10-30T23:17:15.262Z,3.33
2022-10-30T23:19:45.322Z,2.67
2022-10-30T23:22:14.153Z,3.17
2022-10-30T23:24:41.703Z,2.90
2022-10-30T23:27:09.222Z,2.57
2022-10-30T23:29:36.717Z,2.40
2022-10-30T23:32:04.397Z,2.80
2022-10-30T23:34:31.945Z,4.20
2022-10-30T23:37:01.805Z,3.23
2022-10-30T23:39:31.021Z,2.90
2022-10-30T23:41:59.775Z,4.27
2022-10-30T23:44:27.309Z,3.37
2022-10-30T23:46:54.806Z,2.83
2022-10-30T23:49:22.339Z,3.00
2022-10-30T23:51:49.844Z,2.93
2022-10-30T23:54:17.410Z,3.10
2022-10-30T23:56:46.296Z,2.70
2022-10-30T23:59:13.806Z,3.07
